Time;durP1;ratioP1;P1;durP2;ratioP2;P2;SDS_P1;SDS_P2;PMS_P1;PMS_P2;Temp;Humidity;BMP_temperature;BMP_pressure;BME280_temperature;BME280_humidity;BME280_pressure;Samples;Min_cycle;Max_cycle;Signal;HPM_P1;HPM_P2
2023/05/01 00:00:13;;;;;;;4.45;3.13;;;;;;;11.28;74.68;101651.66;4987202;28;20134;-70
2023/05/01 00:02:42;;;;;;;7.35;3.38;;;;;;;11.24;75.38;101640.09;4985757;28;20192;-68
2023/05/01 00:05:08;;;;;;;5.50;3.25;;;;;;;11.24;73.65;101636.50;4986170;28;20046;-69
2023/05/01 00:07:34;;;;;;;5.75;3.28;;;;;;;11.24;74.21;101628.31;4985862;28;20030;-68
2023/05/01 00:09:59;;;;;;;5.30;3.15;;;;;;;11.26;73.88;101625.50;4985697;28;20100;-68
2023/05/01 00:12:25;;;;;;;3.20;2.67;;;;;;;11.29;73.23;101618.00;4987129;28;20045;-68
2023/05/01 00:14:51;;;;;;;5.65;3.30;;;;;;;11.30;73.16;101619.75;4989163;28;20042;-70
2023/05/01 00:17:16;;;;;;;4.88;3.15;;;;;;;11.29;73.03;101612.56;4985547;28;20393;-69
2023/05/01 00:19:41;;;;;;;6.38;3.17;;;;;;;11.29;74.18;101620.72;4985500;28;20585;-70
2023/05/01 00:22:07;;;;;;;5.93;3.50;;;;;;;11.27;74.99;101611.75;4984189;28;20034;-69
2023/05/01 00:24:32;;;;;;;4.95;3.08;;;;;;;11.28;74.63;101615.38;4985512;28;20040;-70
2023/05/01 00:26:58;;;;;;;5.43;3.42;;;;;;;11.27;74.86;101600.00;4993582;28;20072;-69
2023/05/01 00:29:24;;;;;;;7.03;3.58;;;;;;;11.26;73.98;101611.88;4988981;28;20045;-69
2023/05/01 00:31:53;;;;;;;5.68;3.22;;;;;;;11.22;74.11;101605.75;4988161;28;20528;-69
2023/05/01 00:34:20;;;;;;;6.30;3.38;;;;;;;11.23;73.99;101596.59;4995757;28;20509;-69
2023/05/01 00:36:45;;;;;;;6.35;3.55;;;;;;;11.22;73.44;101593.00;4984619;28;20398;-69
2023/05/01 00:39:11;;;;;;;4.50;3.40;;;;;;;11.22;73.71;101595.72;4987171;28;20038;-69
2023/05/01 00:41:36;;;;;;;4.25;3.33;;;;;;;11.22;73.66;101601.16;4985194;28;20031;-69
2023/05/01 00:44:02;;;;;;;4.32;3.30;;;;;;;11.22;76.10;101595.72;4986564;28;20034;-69
2023/05/01 00:46:30;;;;;;;4.30;3.17;;;;;;;11.20;74.69;101583.19;4986764;28;20100;-70
2023/05/01 00:48:57;;;;;;;6.15;3.40;;;;;;;11.19;74.78;101585.03;4986954;28;20509;-70
2023/05/01 00:51:23;;;;;;;6.30;3.10;;;;;;;11.18;75.59;101577.81;4993223;28;20488;-70
2023/05/01 00:53:48;;;;;;;4.18;3.15;;;;;;;11.17;75.36;101577.91;4987303;28;20050;-69
2023/05/01 00:56:15;;;;;;;6.53;3.58;;;;;;;11.15;75.39;101577.16;4986579;28;20386;-69
2023/05/01 00:58:41;;;;;;;6.03;3.10;;;;;;;11.15;75.55;101574.44;4989088;28;20048;-69
2023/05/01 01:01:08;;;;;;;4.90;3.05;;;;;;;11.14;75.64;101570.81;4990832;28;20489;-69
2023/05/01 01:03:33;;;;;;;5.93;3.10;;;;;;;11.11;76.19;101562.84;4988257;28;20120;-69
2023/05/01 01:06:08;;;;;;;7.05;3.22;;;;;;;11.10;75.63;101562.94;4987088;28;20105;-69
2023/05/01 01:08:48;;;;;;;5.30;3.50;;;;;;;11.09;75.08;101562.06;4988329;28;20049;-69
2023/05/01 01:11:20;;;;;;;8.20;4.03;;;;;;;11.06;75.20;101556.81;4988475;28;20034;-69
2023/05/01 01:13:58;;;;;;;6.65;3.75;;;;;;;11.04;74.75;101561.47;4989236;28;20515;-69
2023/05/01 01:16:32;;;;;;;4.40;3.40;;;;;;;11.01;74.63;101556.25;5005245;28;20498;-70
2023/05/01 01:19:24;;;;;;;7.25;3.70;;;;;;;11.00;74.63;101554.47;4990470;28;20453;-69
2023/05/01 01:21:54;;;;;;;5.32;3.33;;;;;;;10.97;74.49;101558.28;4989189;28;20042;-69
2023/05/01 01:24:34;;;;;;;8.38;3.80;;;;;;;10.91;76.27;101550.50;5005627;28;20042;-69
2023/05/01 01:27:19;;;;;;;8.40;4.18;;;;;;;10.91;75.54;101550.50;4988436;28;20124;-69
2023/05/01 01:30:13;;;;;;;7.10;3.72;;;;;;;10.89;74.66;101536.09;4989501;28;20430;-68
2023/05/01 01:33:16;;;;;;;4.55;3.20;;;;;;;10.89;74.42;101533.38;4989958;28;20046;-69
2023/05/01 01:35:48;;;;;;;7.95;3.13;;;;;;;10.88;74.66;101525.31;4989309;28;20542;-68
2023/05/01 01:38:22;;;;;;;5.53;3.38;;;;;;;10.86;75.46;101522.66;4989329;28;20030;-69
2023/05/01 01:41:09;;;;;;;5.30;3.20;;;;;;;10.86;75.34;101522.66;4988627;28;20047;-69
2023/05/01 01:43:41;;;;;;;4.80;3.72;;;;;;;10.81;76.01;101513.91;4990008;28;20045;-69
2023/05/01 01:46:09;;;;;;;4.90;3.33;;;;;;;10.83;76.72;101513.84;4990304;28;20096;-69
2023/05/01 01:48:38;;;;;;;4.93;3.20;;;;;;;10.79;76.36;101507.69;4988212;28;20030;-69
2023/05/01 01:51:15;;;;;;;5.88;3.70;;;;;;;10.81;76.27;101503.03;4987390;28;20034;-70
2023/05/01 01:53:48;;;;;;;6.88;3.63;;;;;;;10.80;75.69;101505.84;4989199;28;20092;-69
2023/05/01 01:56:14;;;;;;;;;;;;;;;10.86;74.52;101503.59;4988587;28;20585;-70
2023/05/01 01:58:42;;;;;;;6.68;3.13;;;;;;;10.81;75.40;101499.44;4988055;28;19924;-69
2023/05/01 02:01:08;;;;;;;5.50;3.60;;;;;;;10.81;75.00;101499.44;4987667;28;20027;-69
2023/05/01 02:03:35;;;;;;;6.70;3.63;;;;;;;10.77;75.21;101496.03;4987296;28;20043;-69
2023/05/01 02:06:03;;;;;;;11.27;3.72;;;;;;;10.76;75.02;101494.28;4987092;28;20050;-70
2023/05/01 02:08:30;;;;;;;5.78;3.20;;;;;;;10.76;74.98;101493.41;5002914;28;20395;-70
2023/05/01 02:10:59;;;;;;;7.13;3.60;;;;;;;10.72;75.35;101484.53;4986144;28;20026;-70
2023/05/01 02:13:28;;;;;;;13.82;4.00;;;;;;;10.73;75.38;101484.47;5004309;28;20022;-70
2023/05/01 02:15:56;;;;;;;8.82;3.72;;;;;;;10.76;75.89;101490.69;4988963;28;20034;-69
2023/05/01 02:18:23;;;;;;;7.15;4.10;;;;;;;10.75;76.03;101486.22;4987982;28;20470;-69
2023/05/01 02:20:50;;;;;;;8.05;3.95;;;;;;;10.72;76.57;101480.00;4986714;28;20403;-70
2023/05/01 02:23:16;;;;;;;6.63;3.95;;;;;;;10.75;75.82;101483.50;4986595;28;20478;-69
2023/05/01 02:25:43;;;;;;;5.13;3.72;;;;;;;10.70;77.52;101470.19;4987726;28;20042;-69
2023/05/01 02:28:12;;;;;;;7.28;3.92;;;;;;;10.68;77.26;101470.28;4999684;28;20367;-69
2023/05/01 02:30:38;;;;;;;6.20;3.53;;;;;;;10.68;76.96;101473.00;4981348;28;20496;-69
2023/05/01 02:33:06;;;;;;;6.47;4.05;;;;;;;10.68;77.30;101466.69;5002485;28;20058;-70
2023/05/01 02:35:31;;;;;;;6.75;3.50;;;;;;;10.67;77.06;101464.91;4985833;28;20050;-69
2023/05/01 02:37:57;;;;;;;6.60;3.90;;;;;;;10.66;77.04;101461.31;4985609;28;20042;-69
2023/05/01 02:40:22;;;;;;;6.22;3.35;;;;;;;10.65;76.73;101456.00;4987093;28;20090;-70
2023/05/01 02:42:50;;;;;;;7.25;4.40;;;;;;;10.64;77.18;101456.97;5003850;28;20041;-69
2023/05/01 02:45:20;;;;;;;6.28;3.70;;;;;;;10.63;76.92;101456.09;4993547;28;20054;-69
2023/05/01 02:47:55;;;;;;;8.45;3.95;;;;;;;10.62;77.08;101448.00;4986770;28;20034;-69
2023/05/01 02:50:21;;;;;;;8.70;4.00;;;;;;;10.59;78.13;101448.22;4985896;28;20065;-70
2023/05/01 02:52:47;;;;;;;7.00;3.67;;;;;;;10.56;78.32;101449.28;4986172;28;20168;-69
2023/05/01 02:55:51;;;;;;;6.85;3.65;;;;;;;10.55;78.26;101433.06;4973408;28;20567;-70
2023/05/01 02:58:17;;;;;;;10.50;4.40;;;;;;;10.54;77.02;101434.91;4986660;28;20117;-69
2023/05/01 03:00:44;;;;;;;7.50;4.18;;;;;;;10.53;78.69;101422.25;4986029;28;20061;-69
2023/05/01 03:03:10;;;;;;;12.50;3.58;;;;;;;10.54;77.64;101434.91;4951980;28;1030226;-69
2023/05/01 03:05:37;;;;;;;7.00;3.28;;;;;;;10.53;78.17;101432.25;4987609;28;20189;-69
2023/05/01 03:08:03;;;;;;;4.22;3.40;;;;;;;10.52;77.64;101430.53;4986202;28;20121;-69
2023/05/01 03:10:28;;;;;;;5.43;3.95;;;;;;;10.51;77.01;101432.38;4986717;28;20045;-69
2023/05/01 03:12:53;;;;;;;7.28;4.20;;;;;;;10.51;76.75;101426.94;4986784;28;20041;-69
2023/05/01 03:15:23;;;;;;;5.60;3.72;;;;;;;10.52;76.18;101425.06;4988904;28;20030;-69
2023/05/01 03:17:48;;;;;;;4.55;3.70;;;;;;;10.51;76.48;101420.63;4988698;28;20044;-69
2023/05/01 03:20:14;;;;;;;5.97;3.25;;;;;;;10.46;77.65;101416.34;4986092;28;20516;-69
2023/05/01 03:22:40;;;;;;;9.90;4.30;;;;;;;10.45;77.93;101413.72;4985354;28;20073;-68
2023/05/01 03:25:06;;;;;;;4.95;3.65;;;;;;;10.44;77.40;101422.81;4986648;28;20030;-69
2023/05/01 03:27:31;;;;;;;8.10;4.05;;;;;;;10.43;77.54;101408.34;4992896;28;20025;-69
2023/05/01 03:29:56;;;;;;;6.82;3.70;;;;;;;10.42;76.82;101403.03;4987865;28;20129;-69
2023/05/01 03:32:23;;;;;;;8.27;4.07;;;;;;;10.41;77.17;101404.88;4986202;28;20022;-69
2023/05/01 03:34:50;;;;;;;7.25;3.92;;;;;;;10.40;77.70;101404.97;4987063;28;20479;-69
2023/05/01 03:37:16;;;;;;;5.68;3.83;;;;;;;10.41;77.62;101409.44;4985549;28;20521;-69
2023/05/01 03:39:42;;;;;;;6.20;3.58;;;;;;;10.41;77.56;101407.59;4986019;28;20066;-70
2023/05/01 03:42:23;;;;;;;7.70;3.75;;;;;;;10.40;77.27;101399.53;4987543;28;20042;-69
2023/05/01 03:44:50;;;;;;;7.93;4.32;;;;;;;10.38;76.94;101387.88;4986250;28;20569;-69
2023/05/01 03:47:17;;;;;;;7.50;4.18;;;;;;;10.37;77.29;101397.00;4986545;28;20120;-69
2023/05/01 03:49:42;;;;;;;7.45;4.03;;;;;;;10.40;77.26;101396.81;4986258;28;20809;-69
2023/05/01 03:52:10;;;;;;;6.80;4.13;;;;;;;10.38;76.99;101391.44;4984974;28;20093;-69
2023/05/01 03:54:37;;;;;;;9.95;3.92;;;;;;;10.36;77.77;101387.97;4985894;28;20072;-69
2023/05/01 03:57:15;;;;;;;6.15;4.18;;;;;;;10.37;76.56;101384.28;4986462;28;20041;-69
2023/05/01 03:59:42;;;;;;;5.85;3.60;;;;;;;10.35;77.96;101383.50;4987059;28;20042;-70
2023/05/01 04:02:09;;;;;;;7.22;3.83;;;;;;;10.32;79.12;101382.81;4985612;28;20038;-69
2023/05/01 04:04:35;;;;;;;9.32;4.40;;;;;;;10.32;79.71;101374.66;4986016;28;20510;-69
2023/05/01 04:07:01;;;;;;;4.38;3.65;;;;;;;10.32;78.65;101383.69;4985929;28;20117;-69
2023/05/01 04:09:28;;;;;;;7.60;4.10;;;;;;;10.33;77.63;101381.84;4985685;28;20137;-69
2023/05/01 04:11:55;;;;;;;10.45;4.28;;;;;;;10.28;77.70;101375.81;4986133;28;20081;-69
2023/05/01 04:14:20;;;;;;;8.27;4.35;;;;;;;10.29;77.58;101380.28;4987055;28;20498;-69
2023/05/01 04:16:46;;;;;;;8.95;5.35;;;;;;;10.29;77.98;101383.88;4986414;28;20069;-69
2023/05/01 04:19:12;;;;;;;7.10;4.20;;;;;;;10.28;78.05;101373.97;4985794;28;20437;-69
2023/05/01 04:21:41;;;;;;;17.13;7.07;;;;;;;10.27;78.67;101382.22;4984053;28;20491;-69
2023/05/01 04:24:06;;;;;;;6.47;4.38;;;;;;;10.27;78.50;101380.38;4985817;28;20036;-68
2023/05/01 04:26:32;;;;;;;10.98;5.00;;;;;;;10.27;79.30;101374.94;4986235;28;20034;-68
2023/05/01 04:28:59;;;;;;;6.18;4.43;;;;;;;10.28;78.69;101378.53;4985550;28;20033;-68
2023/05/01 04:31:25;;;;;;;6.78;4.20;;;;;;;10.27;80.00;101383.09;4985617;28;20030;-69
2023/05/01 04:33:50;;;;;;;7.90;3.90;;;;;;;10.28;79.70;101382.13;4988316;28;20038;-69
2023/05/01 04:36:16;;;;;;;6.80;4.00;;;;;;;10.29;81.05;101386.59;4989258;28;20097;-69
2023/05/01 04:38:43;;;;;;;8.68;4.15;;;;;;;10.28;81.85;101384.84;4989494;28;20366;-69
2023/05/01 04:41:09;;;;;;;6.07;3.58;;;;;;;10.27;83.17;101384.97;4988589;28;20034;-69
2023/05/01 04:43:34;;;;;;;6.82;4.82;;;;;;;10.22;82.27;101386.06;4990972;28;20100;-69
2023/05/01 04:46:03;;;;;;;8.48;4.72;;;;;;;10.25;82.48;101384.16;4989199;28;20038;-68
2023/05/01 04:48:28;;;;;;;8.23;4.18;;;;;;;10.25;82.68;101390.47;5003851;28;20093;-69
2023/05/01 04:50:54;;;;;;;6.05;4.00;;;;;;;10.22;83.40;101377.06;4988396;28;20544;-69
2023/05/01 04:53:22;;;;;;;10.30;4.72;;;;;;;10.20;83.82;101379.84;4989465;28;20027;-69
2023/05/01 04:55:48;;;;;;;10.95;4.65;;;;;;;10.18;81.96;101381.78;4989596;28;20105;-69
2023/05/01 04:58:14;;;;;;;9.13;4.57;;;;;;;10.19;82.55;101383.53;4985906;28;20117;-69
2023/05/01 05:00:42;;;;;;;9.48;4.43;;;;;;;10.22;83.12;101374.34;4987336;28;20046;-68
2023/05/01 05:03:11;;;;;;;7.15;4.40;;;;;;;10.23;84.36;101376.06;4985246;28;20054;-68
2023/05/01 05:05:37;;;;;;;6.65;4.25;;;;;;;10.24;85.04;101380.56;4988795;28;20366;-68
2023/05/01 05:08:05;;;;;;;8.52;4.22;;;;;;;10.26;84.97;101378.66;4987632;28;20545;-69
2023/05/01 05:10:33;;;;;;;8.55;4.47;;;;;;;10.27;84.85;101377.66;4987714;28;20050;-69
2023/05/01 05:13:18;;;;;;;9.35;4.43;;;;;;;10.29;84.80;101373.00;4988645;28;20037;-69
2023/05/01 05:15:47;;;;;;;9.35;4.72;;;;;;;10.30;86.30;101369.28;4987845;28;20129;-69
2023/05/01 05:18:12;;;;;;;7.18;4.45;;;;;;;10.33;85.65;101385.44;4987776;28;20440;-69
2023/05/01 05:20:38;;;;;;;7.80;4.72;;;;;;;10.37;85.79;101367.06;4986584;28;20034;-69
2023/05/01 05:23:05;;;;;;;8.63;4.63;;;;;;;10.39;85.69;101367.84;4987641;28;20482;-68
2023/05/01 05:25:30;;;;;;;10.63;5.03;;;;;;;10.47;85.28;101382.72;4987826;28;20489;-69
2023/05/01 05:27:56;;;;;;;8.80;4.70;;;;;;;10.53;85.74;101375.13;4999861;28;20029;-68
2023/05/01 05:30:21;;;;;;;8.60;4.60;;;;;;;10.58;85.09;101375.72;4987365;28;20100;-69
2023/05/01 05:32:47;;;;;;;13.00;4.78;;;;;;;10.67;85.57;101375.13;4988050;28;20462;-69
2023/05/01 05:35:13;;;;;;;11.10;5.28;;;;;;;10.72;85.03;101370.25;5005168;28;20030;-69
2023/05/01 05:37:38;;;;;;;7.45;4.38;;;;;;;10.80;84.51;101375.22;4999408;28;68777;-69
2023/05/01 05:40:05;;;;;;;6.47;4.35;;;;;;;10.87;84.41;101376.56;5007148;28;20026;-68
2023/05/01 05:42:37;;;;;;;;;;;;;;;10.97;82.51;101372.25;5004091;28;20443;-69
2023/05/01 05:45:05;;;;;;;11.07;4.90;;;;;;;11.02;83.67;101371.97;4996690;28;20309;-68
2023/05/01 05:47:31;;;;;;;10.98;5.13;;;;;;;11.13;82.31;101383.88;5003837;28;20342;-69
2023/05/01 05:49:57;;;;;;;8.63;4.82;;;;;;;11.23;81.97;101376.84;4999761;28;20030;-69
2023/05/01 05:52:22;;;;;;;13.13;5.50;;;;;;;11.32;78.21;101379.94;5005134;28;20396;-69
2023/05/01 05:54:48;;;;;;;10.10;5.55;;;;;;;11.36;79.04;101366.00;5007218;28;20029;-69
2023/05/01 05:57:13;;;;;;;9.48;5.88;;;;;;;11.43;78.89;101367.34;5005939;28;20053;-69
2023/05/01 05:59:43;;;;;;;10.43;5.53;;;;;;;11.55;77.66;101362.91;4998119;28;20084;-69
2023/05/01 06:02:10;;;;;;;11.48;6.20;;;;;;;11.69;78.09;101365.56;5002377;28;20065;-70
2023/05/01 06:04:35;;;;;;;10.85;6.45;;;;;;;11.80;76.85;101366.66;5005149;28;20069;-69
2023/05/01 06:07:01;;;;;;;10.73;6.00;;;;;;;11.91;76.11;101370.44;5004427;28;20317;-69
2023/05/01 06:09:26;;;;;;;12.18;6.15;;;;;;;11.98;76.58;101360.84;4990215;28;20114;-69
2023/05/01 06:11:51;;;;;;;9.60;5.85;;;;;;;12.09;77.58;101365.53;5007803;28;20042;-69
2023/05/01 06:14:17;;;;;;;12.15;5.50;;;;;;;12.18;77.07;101375.81;5003856;28;20030;-69
2023/05/01 06:16:45;;;;;;;9.88;6.05;;;;;;;12.23;74.67;101370.03;4987597;28;20080;-69
2023/05/01 06:19:11;;;;;;;9.32;6.35;;;;;;;12.22;74.00;101366.44;4999516;28;20498;-69
2023/05/01 06:21:37;;;;;;;11.10;6.93;;;;;;;12.22;74.05;101354.66;4985870;28;20042;-69
2023/05/01 06:24:03;;;;;;;13.63;6.15;;;;;;;12.26;75.66;101361.59;4989818;28;20465;-68
2023/05/01 06:26:38;;;;;;;11.98;5.88;;;;;;;12.34;75.75;101361.94;5005771;28;20064;-69
2023/05/01 06:29:03;;;;;;;10.63;6.10;;;;;;;12.46;76.47;101366.53;5004549;28;20034;-69
2023/05/01 06:31:29;;;;;;;13.30;6.30;;;;;;;12.46;70.91;101365.66;4986950;28;20486;-69
2023/05/01 06:33:55;;;;;;;11.20;6.28;;;;;;;12.50;72.79;101365.31;4988319;28;20080;-69
2023/05/01 06:36:26;;;;;;;13.27;6.60;;;;;;;12.55;72.49;101361.41;4985604;28;20113;-69
2023/05/01 06:38:52;;;;;;;11.93;6.47;;;;;;;12.64;72.95;101367.06;4987920;28;20146;-70
2023/05/01 06:41:18;;;;;;;9.75;6.97;;;;;;;12.70;71.24;101365.72;4986240;28;20409;-69
2023/05/01 06:43:44;;;;;;;12.38;6.38;;;;;;;12.71;70.86;101357.41;4986605;28;20027;-69
2023/05/01 06:46:09;;;;;;;10.02;6.72;;;;;;;12.76;70.99;101354.34;4987656;28;20207;-69
2023/05/01 06:48:34;;;;;;;10.23;6.25;;;;;;;12.87;73.70;101356.28;4988010;28;20447;-69
2023/05/01 06:51:00;;;;;;;13.20;7.10;;;;;;;12.83;71.46;101347.47;4989984;28;20046;-70
2023/05/01 06:53:25;;;;;;;12.10;6.85;;;;;;;12.86;70.60;101351.81;4989510;28;20037;-69
2023/05/01 06:55:50;;;;;;;11.18;6.97;;;;;;;12.95;70.37;101343.81;4991026;28;20052;-69
2023/05/01 06:58:16;;;;;;;12.25;7.20;;;;;;;13.07;72.39;101357.56;4986482;28;20038;-69
2023/05/01 07:00:41;;;;;;;11.93;7.22;;;;;;;13.18;69.81;101357.59;4988387;28;20038;-70
2023/05/01 07:03:06;;;;;;;14.85;7.13;;;;;;;13.36;70.93;101358.97;4988104;28;20043;-70
2023/05/01 07:05:32;;;;;;;17.08;7.80;;;;;;;13.47;69.68;101349.94;4988043;28;20073;-69
2023/05/01 07:07:57;;;;;;;8.27;6.40;;;;;;;13.53;70.57;101353.09;4986705;28;20062;-69
2023/05/01 07:10:22;;;;;;;13.45;6.88;;;;;;;13.58;68.42;101354.63;4986631;28;20034;-69
2023/05/01 07:12:48;;;;;;;11.27;7.20;;;;;;;13.72;69.38;101349.81;4993471;28;20042;-69
2023/05/01 07:15:15;;;;;;;9.75;7.03;;;;;;;13.88;69.81;101344.00;5001497;28;20485;-69
2023/05/01 07:17:40;;;;;;;10.63;7.13;;;;;;;13.92;69.19;101347.38;5001840;28;20046;-69
2023/05/01 07:20:06;;;;;;;15.48;7.45;;;;;;;13.93;68.34;101349.13;5001506;28;20073;-70
2023/05/01 07:22:31;;;;;;;17.65;7.70;;;;;;;14.06;67.75;101351.78;5001634;28;20034;-70
2023/05/01 07:24:57;;;;;;;12.80;7.18;;;;;;;14.12;66.53;101346.69;5000078;28;20034;-70
2023/05/01 07:27:23;;;;;;;15.23;7.82;;;;;;;14.21;68.30;101350.56;4991714;28;20109;-70
2023/05/01 07:29:49;;;;;;;12.68;7.80;;;;;;;14.38;69.28;101355.56;4987168;28;20069;-69
2023/05/01 07:32:15;;;;;;;12.57;7.60;;;;;;;14.58;68.34;101355.84;4996105;28;20034;-69
2023/05/01 07:34:40;;;;;;;14.00;8.40;;;;;;;14.79;66.69;101357.72;5004471;28;20056;-69
2023/05/01 07:37:05;;;;;;;9.95;7.63;;;;;;;14.92;65.25;101356.69;4995160;28;20585;-69
2023/05/01 07:39:31;;;;;;;10.95;7.35;;;;;;;15.13;66.34;101354.03;4992171;28;20061;-69
2023/05/01 07:41:57;;;;;;;13.88;7.25;;;;;;;15.34;65.28;101351.34;5006468;28;20498;-69
2023/05/01 07:44:22;;;;;;;13.52;7.70;;;;;;;15.41;64.76;101352.59;5001434;28;20030;-68
2023/05/01 07:46:48;;;;;;;13.85;7.70;;;;;;;15.50;64.58;101360.91;4986532;28;20129;-69
2023/05/01 07:49:13;;;;;;;12.50;7.60;;;;;;;15.62;64.80;101363.59;4986204;28;20030;-69
2023/05/01 07:51:38;;;;;;;13.52;7.78;;;;;;;15.82;64.60;101362.78;4984054;28;20364;-69
2023/05/01 07:54:04;;;;;;;10.73;8.05;;;;;;;16.12;63.65;101362.00;5001657;28;20469;-69
2023/05/01 07:56:30;;;;;;;14.95;7.93;;;;;;;16.39;63.93;101364.19;4986075;28;20479;-70
2023/05/01 07:58:56;;;;;;;14.52;7.35;;;;;;;16.52;63.60;101358.47;4986435;28;20034;-70
2023/05/01 08:01:21;;;;;;;13.93;7.68;;;;;;;16.74;62.30;101358.31;4986438;28;20049;-70
2023/05/01 08:03:47;;;;;;;14.43;8.52;;;;;;;16.80;61.21;101346.75;4987076;28;20133;-69
2023/05/01 08:06:12;;;;;;;12.82;7.95;;;;;;;16.96;62.43;101354.47;4985511;28;20164;-69
2023/05/01 08:08:38;;;;;;;15.80;7.82;;;;;;;17.14;63.16;101354.66;4986175;28;20197;-69
2023/05/01 08:11:03;;;;;;;11.38;8.27;;;;;;;17.34;60.81;101358.31;4986169;28;20033;-70
2023/05/01 08:13:29;;;;;;;10.38;7.53;;;;;;;17.46;62.90;101351.69;4986737;28;20033;-70
2023/05/01 08:15:54;;;;;;;13.32;8.07;;;;;;;17.32;57.62;101344.72;4986477;28;20038;-69
2023/05/01 08:18:20;;;;;;;12.60;7.47;;;;;;;17.51;61.05;101349.38;4986345;28;20533;-69
2023/05/01 08:20:49;;;;;;;13.98;8.38;;;;;;;17.75;58.89;101339.84;4986577;28;20026;-70
2023/05/01 08:23:16;;;;;;;13.50;7.40;;;;;;;18.28;59.44;101342.09;4985060;28;20085;-69
2023/05/01 08:25:42;;;;;;;13.07;7.28;;;;;;;18.81;56.42;101339.59;4985881;28;20470;-69
2023/05/01 08:28:07;;;;;;;10.25;6.75;;;;;;;19.27;57.83;101342.38;4986347;28;20049;-70
2023/05/01 08:30:32;;;;;;;11.27;7.28;;;;;;;19.73;56.41;101338.56;4986335;28;20552;-69
2023/05/01 08:32:58;;;;;;;11.15;7.90;;;;;;;20.04;56.71;101341.75;4986390;28;20490;-69
2023/05/01 08:35:23;;;;;;;11.55;8.07;;;;;;;20.24;53.49;101336.06;4985854;28;20038;-69
2023/05/01 08:37:48;;;;;;;7.82;7.00;;;;;;;20.51;54.52;101344.16;4984638;28;20022;-70
2023/05/01 08:40:14;;;;;;;9.45;7.22;;;;;;;20.51;50.89;101341.41;4984133;28;20042;-69
2023/05/01 08:42:40;;;;;;;12.57;7.03;;;;;;;20.40;53.00;101338.91;4986298;28;20446;-70
2023/05/01 08:45:09;;;;;;;11.15;6.53;;;;;;;20.43;53.85;101343.25;4986376;28;20049;-70
2023/05/01 08:47:39;;;;;;;15.23;7.25;;;;;;;20.35;50.74;101342.16;4984268;28;20030;-69
2023/05/01 08:50:10;;;;;;;9.90;7.30;;;;;;;20.27;52.05;101341.22;5002617;28;20042;-69
2023/05/01 08:52:39;;;;;;;9.25;6.95;;;;;;;20.11;52.42;101334.56;5003300;28;20442;-70
2023/05/01 08:55:10;;;;;;;11.40;7.13;;;;;;;20.24;53.80;101338.81;5005725;28;20046;-69
2023/05/01 08:57:36;;;;;;;9.60;6.50;;;;;;;20.11;52.38;101345.63;4989937;28;20494;-70
2023/05/01 09:00:04;;;;;;;12.15;6.75;;;;;;;19.94;53.59;101346.50;4992542;28;20089;-70
2023/05/01 09:02:33;;;;;;;8.52;6.80;;;;;;;19.91;51.82;101345.94;5004903;28;20133;-69
2023/05/01 09:05:00;;;;;;;11.02;6.80;;;;;;;19.91;55.07;101343.19;4997095;28;20478;-70
2023/05/01 09:07:26;;;;;;;9.18;6.72;;;;;;;19.76;52.77;101341.00;4983629;28;20135;-70
2023/05/01 09:09:51;;;;;;;11.25;7.55;;;;;;;19.76;52.20;101352.03;4985872;28;20158;-69
2023/05/01 09:12:26;;;;;;;9.15;7.60;;;;;;;19.56;52.35;101342.16;4986501;28;20444;-69
2023/05/01 09:14:53;;;;;;;11.70;8.20;;;;;;;19.69;52.62;101341.81;4986006;28;20459;-70
2023/05/01 09:17:21;;;;;;;11.00;7.47;;;;;;;20.08;54.16;101347.81;4986168;28;20491;-70
2023/05/01 09:19:47;;;;;;;13.25;6.93;;;;;;;20.32;52.88;101344.38;4987589;28;20042;-70
2023/05/01 09:22:14;;;;;;;10.55;7.40;;;;;;;20.46;55.37;101346.53;4988238;28;20048;-70
2023/05/01 09:24:39;;;;;;;12.07;6.80;;;;;;;20.69;51.25;101349.63;4989312;28;20298;-69
2023/05/01 09:27:05;;;;;;;10.48;7.00;;;;;;;20.70;49.81;101345.84;4989041;28;20038;-69
2023/05/01 09:29:40;;;;;;;14.07;7.75;;;;;;;20.63;50.15;101347.53;4989807;28;20062;-69
2023/05/01 09:32:19;;;;;;;12.00;7.43;;;;;;;20.31;48.46;101346.28;4988833;28;20061;-69
2023/05/01 09:34:46;;;;;;;13.13;7.15;;;;;;;20.15;52.60;101342.53;4988582;28;20065;-69
2023/05/01 09:37:32;;;;;;;10.85;6.88;;;;;;;19.96;51.42;101346.34;4988388;28;20410;-68
2023/05/01 09:40:08;;;;;;;14.13;7.15;;;;;;;20.18;51.78;101342.19;4989153;28;20130;-69
2023/05/01 09:42:39;;;;;;;10.10;6.90;;;;;;;20.46;52.78;101341.00;5003877;28;20050;-69
2023/05/01 09:45:13;;;;;;;11.13;6.63;;;;;;;20.80;51.72;101340.22;4989716;28;20046;-69
2023/05/01 09:47:40;;;;;;;14.05;7.38;;;;;;;20.99;52.28;101345.47;4989111;28;20193;-70
2023/05/01 09:50:06;;;;;;;12.77;6.68;;;;;;;21.34;50.31;101340.75;4989126;28;20038;-70
2023/05/01 09:52:34;;;;;;;8.80;7.47;;;;;;;21.32;46.32;101342.84;4987872;28;20125;-70
2023/05/01 09:55:12;;;;;;;11.45;7.13;;;;;;;21.50;51.19;101339.94;4988832;28;20038;-70
2023/05/01 09:57:38;;;;;;;11.50;7.03;;;;;;;21.87;47.78;101343.09;4993363;28;20121;-70
2023/05/01 10:00:07;;;;;;;10.13;6.47;;;;;;;22.03;47.52;101335.81;4989206;28;20026;-70
2023/05/01 10:02:32;;;;;;;11.00;6.70;;;;;;;22.01;47.21;101338.75;5003183;28;20474;-71
2023/05/01 10:04:58;;;;;;;10.18;6.50;;;;;;;22.00;46.20;101350.88;4988880;28;20034;-70
2023/05/01 10:07:24;;;;;;;10.55;6.18;;;;;;;21.87;44.97;101345.88;4986146;28;20042;-70
2023/05/01 10:09:50;;;;;;;13.95;6.32;;;;;;;22.05;47.57;101339.25;4988403;28;20926;-71
2023/05/01 10:12:27;;;;;;;11.57;6.20;;;;;;;21.99;46.62;101348.28;4989462;28;20117;-70
2023/05/01 10:14:54;;;;;;;10.63;7.32;;;;;;;21.60;43.43;101337.88;4988743;28;20038;-71
2023/05/01 10:17:22;;;;;;;9.48;6.93;;;;;;;21.25;44.82;101347.28;4987432;28;20550;-70
2023/05/01 10:19:49;;;;;;;11.30;6.55;;;;;;;21.35;47.01;101350.78;4989101;28;20049;-70
2023/05/01 10:22:15;;;;;;;10.50;6.85;;;;;;;21.76;50.21;101343.41;4986226;28;20054;-70
2023/05/01 10:24:45;;;;;;;15.15;7.72;;;;;;;22.03;51.52;101352.44;4988359;28;20085;-70
2023/05/01 10:27:11;;;;;;;9.48;6.57;;;;;;;21.93;47.63;101351.75;4988527;28;20471;-69
2023/05/01 10:29:38;;;;;;;10.10;6.85;;;;;;;21.78;47.72;101354.34;4988521;28;20497;-69
2023/05/01 10:32:08;;;;;;;10.98;7.13;;;;;;;21.60;51.66;101349.81;4987915;28;20034;-68
2023/05/01 10:34:44;;;;;;;11.55;7.05;;;;;;;21.50;48.11;101362.97;4988691;28;20501;-70
2023/05/01 10:37:17;;;;;;;11.18;6.35;;;;;;;21.53;51.07;101356.19;4987396;28;20669;-68
2023/05/01 10:39:42;;;;;;;12.45;7.90;;;;;;;21.36;47.89;101356.19;4986405;28;20030;-68
2023/05/01 10:42:10;;;;;;;13.20;7.28;;;;;;;21.20;47.57;101363.53;4988383;28;20354;-68
2023/05/01 10:45:29;;;;;;;9.50;7.03;;;;;;;21.26;51.81;101358.16;4988377;28;20545;-69
2023/05/01 10:48:39;;;;;;;13.77;7.10;;;;;;;21.46;51.61;101366.22;5004437;28;20053;-69
2023/05/01 10:51:31;;;;;;;11.90;7.18;;;;;;;21.69;49.50;101359.00;5006705;28;20040;-70
2023/05/01 10:54:22;;;;;;;14.27;6.70;;;;;;;21.76;47.91;101357.25;4996902;28;20100;-68
2023/05/01 10:57:43;;;;;;;10.95;7.13;;;;;;;21.84;50.52;101360.03;4987962;28;20101;-68
2023/05/01 11:00:09;;;;;;;9.68;6.88;;;;;;;21.82;47.52;101359.38;4987324;28;20034;-69
2023/05/01 11:02:34;;;;;;;12.13;7.03;;;;;;;21.77;49.25;101364.53;4987220;28;20046;-69
2023/05/01 11:04:59;;;;;;;11.20;6.82;;;;;;;21.65;45.41;101360.38;5001341;28;20536;-69
2023/05/01 11:07:26;;;;;;;10.88;7.53;;;;;;;21.56;47.24;101362.25;5006147;28;20535;-69
2023/05/01 11:09:53;;;;;;;9.82;6.38;;;;;;;21.59;49.58;101366.56;5005528;28;20045;-70
2023/05/01 11:12:43;;;;;;;12.57;7.40;;;;;;;21.93;50.12;101354.53;4993134;28;20039;-70
2023/05/01 11:15:09;;;;;;;10.43;6.90;;;;;;;22.23;47.16;101356.59;4987426;28;20165;-69
2023/05/01 11:17:40;;;;;;;13.45;7.03;;;;;;;22.32;46.51;101360.22;4987758;28;20498;-69
2023/05/01 11:20:11;;;;;;;10.82;6.95;;;;;;;22.62;47.94;101359.50;4987834;28;20339;-68
2023/05/01 11:22:39;;;;;;;11.77;7.25;;;;;;;22.94;45.32;101359.56;4986128;28;20035;-69
2023/05/01 11:25:21;;;;;;;10.90;6.95;;;;;;;22.88;43.09;101363.91;4987627;28;20030;-69
2023/05/01 11:27:47;;;;;;;;;;;;;;;22.79;47.01;101364.97;4988425;28;20049;-69